To NAV CANADA Home Page Login to a new session Search on AWWS site Disclaimer Vers la page française équivalente Tips FAQ What's new on the site To the Forecasts and Observations / NOTAM section To "File a Flight Plan" website Publications and other links Update of the User's profile FIC Telephone Numbers My Weather Data Folder Route Weather Data Regional Weather Data Local Weather Data To the Forecasts and Observations / NOTAM section
Request Generated 08/19/2022 at 02:27:49 UTC . Weather information available at that time is displayed.

METAR/TAF

SIOUX LOOKOUT/ON    

METAR CYXL 190200Z 36005KT 15SM FEW040TCU SCT110 OVC210 19/16 A2983 RMK TCU1AC2CI5 SLP106 DENSITY ALT 2200FT=
METAR CYXL 190100Z CCA 35004KT 15SM FEW040TCU SCT110 OVC200 19/16 A2983 RMK TCU2AC2CI4 SLP107 DENSITY ALT 2200FT=
METAR CYXL 190100Z 35004KT 15SM FEW100 OVC190 19/16 A2983 RMK AC2CI6 SLP107 DENSITY ALT 2200FT=
METAR CYXL 190000Z 31005KT 15SM FEW045TCU BKN140 BKN240 20/16 A2983 RMK TCU2AC3CS2 SLP105 DENSITY ALT 2300FT=

TAF CYXL 190140Z 1902/1914 35006KT P6SM BKN050 TEMPO 1902/1905 5SM
-SHRA BR
FM191100 03010KT P6SM SCT012 BKN050 TEMPO 1911/1914 BKN012
BKN050
RMK NXT FCST BY 190800Z=
Your time UTC time
Weather data provided by Environment Canada and NAV CANADA